sensor_id;sensor_type;location;lat;lon;timestamp;P1;durP1;ratioP1;P2;durP2;ratioP2
635;SDS011;302;50.206;8.196;2024-02-26T00:02:33;1.30;;;1.20;;
635;SDS011;302;50.206;8.196;2024-02-26T00:05:21;1.70;;;1.40;;
635;SDS011;302;50.206;8.196;2024-02-26T00:08:05;1.20;;;0.80;;
635;SDS011;302;50.206;8.196;2024-02-26T00:10:49;1.40;;;1.05;;
635;SDS011;302;50.206;8.196;2024-02-26T00:13:33;1.70;;;1.25;;
635;SDS011;302;50.206;8.196;2024-02-26T00:16:17;1.00;;;0.73;;
635;SDS011;302;50.206;8.196;2024-02-26T00:19:01;1.00;;;0.90;;
635;SDS011;302;50.206;8.196;2024-02-26T00:21:45;1.40;;;0.82;;
635;SDS011;302;50.206;8.196;2024-02-26T00:24:29;1.42;;;1.05;;
635;SDS011;302;50.206;8.196;2024-02-26T00:27:13;1.40;;;1.25;;
635;SDS011;302;50.206;8.196;2024-02-26T00:29:56;1.15;;;1.05;;
635;SDS011;302;50.206;8.196;2024-02-26T00:32:40;1.20;;;1.10;;
635;SDS011;302;50.206;8.196;2024-02-26T00:35:24;1.10;;;1.00;;
635;SDS011;302;50.206;8.196;2024-02-26T00:38:08;1.85;;;0.90;;
635;SDS011;302;50.206;8.196;2024-02-26T00:40:52;1.40;;;1.00;;
635;SDS011;302;50.206;8.196;2024-02-26T00:43:36;1.40;;;1.08;;
635;SDS011;302;50.206;8.196;2024-02-26T00:46:23;1.10;;;0.77;;
635;SDS011;302;50.206;8.196;2024-02-26T00:49:07;1.10;;;0.88;;
635;SDS011;302;50.206;8.196;2024-02-26T00:51:51;1.20;;;1.00;;
635;SDS011;302;50.206;8.196;2024-02-26T00:54:34;1.30;;;0.90;;
635;SDS011;302;50.206;8.196;2024-02-26T00:57:18;1.27;;;1.10;;
635;SDS011;302;50.206;8.196;2024-02-26T01:00:02;1.20;;;0.95;;
635;SDS011;302;50.206;8.196;2024-02-26T01:02:47;1.42;;;1.20;;
635;SDS011;302;50.206;8.196;2024-02-26T01:05:31;1.10;;;0.80;;
635;SDS011;302;50.206;8.196;2024-02-26T01:08:15;1.45;;;0.93;;
635;SDS011;302;50.206;8.196;2024-02-26T01:10:58;1.30;;;0.70;;
635;SDS011;302;50.206;8.196;2024-02-26T01:13:42;1.23;;;1.13;;
635;SDS011;302;50.206;8.196;2024-02-26T01:16:26;1.90;;;0.98;;
635;SDS011;302;50.206;8.196;2024-02-26T01:19:12;1.92;;;1.73;;
635;SDS011;302;50.206;8.196;2024-02-26T01:21:57;1.20;;;1.10;;
635;SDS011;302;50.206;8.196;2024-02-26T01:24:41;1.20;;;0.80;;
635;SDS011;302;50.206;8.196;2024-02-26T01:27:25;1.02;;;0.90;;
635;SDS011;302;50.206;8.196;2024-02-26T01:30:11;1.40;;;1.05;;
635;SDS011;302;50.206;8.196;2024-02-26T01:32:55;1.00;;;0.90;;
635;SDS011;302;50.206;8.196;2024-02-26T01:35:39;1.77;;;0.70;;
635;SDS011;302;50.206;8.196;2024-02-26T01:38:23;1.30;;;1.10;;
635;SDS011;302;50.206;8.196;2024-02-26T01:41:07;1.30;;;0.98;;
635;SDS011;302;50.206;8.196;2024-02-26T01:43:51;2.17;;;1.00;;
635;SDS011;302;50.206;8.196;2024-02-26T01:46:35;1.50;;;1.10;;
635;SDS011;302;50.206;8.196;2024-02-26T01:49:19;1.42;;;1.00;;
635;SDS011;302;50.206;8.196;2024-02-26T01:52:03;1.30;;;1.20;;
635;SDS011;302;50.206;8.196;2024-02-26T01:54:48;1.30;;;0.90;;
635;SDS011;302;50.206;8.196;2024-02-26T01:57:32;1.30;;;1.17;;
635;SDS011;302;50.206;8.196;2024-02-26T02:00:16;1.67;;;1.30;;
635;SDS011;302;50.206;8.196;2024-02-26T02:03:01;1.77;;;1.48;;
635;SDS011;302;50.206;8.196;2024-02-26T02:05:45;2.00;;;1.30;;
635;SDS011;302;50.206;8.196;2024-02-26T02:08:29;1.20;;;1.00;;
635;SDS011;302;50.206;8.196;2024-02-26T02:11:13;1.55;;;1.45;;
635;SDS011;302;50.206;8.196;2024-02-26T02:13:58;1.17;;;1.08;;
635;SDS011;302;50.206;8.196;2024-02-26T02:16:42;1.55;;;1.40;;
635;SDS011;302;50.206;8.196;2024-02-26T02:19:26;1.42;;;1.33;;
635;SDS011;302;50.206;8.196;2024-02-26T02:22:10;1.60;;;1.27;;
635;SDS011;302;50.206;8.196;2024-02-26T02:24:54;2.10;;;1.33;;
635;SDS011;302;50.206;8.196;2024-02-26T02:27:37;1.58;;;1.35;;
635;SDS011;302;50.206;8.196;2024-02-26T02:30:23;2.10;;;1.95;;
635;SDS011;302;50.206;8.196;2024-02-26T02:33:07;1.45;;;1.20;;
635;SDS011;302;50.206;8.196;2024-02-26T02:35:51;1.30;;;1.20;;
635;SDS011;302;50.206;8.196;2024-02-26T02:38:37;1.75;;;1.50;;
635;SDS011;302;50.206;8.196;2024-02-26T02:41:21;1.33;;;1.23;;
635;SDS011;302;50.206;8.196;2024-02-26T02:44:05;1.85;;;1.35;;
635;SDS011;302;50.206;8.196;2024-02-26T02:46:49;1.65;;;1.33;;
635;SDS011;302;50.206;8.196;2024-02-26T02:49:35;1.40;;;1.10;;
635;SDS011;302;50.206;8.196;2024-02-26T02:52:19;1.27;;;1.15;;
635;SDS011;302;50.206;8.196;2024-02-26T02:55:03;1.80;;;1.30;;
635;SDS011;302;50.206;8.196;2024-02-26T02:57:47;2.40;;;1.52;;
635;SDS011;302;50.206;8.196;2024-02-26T03:00:31;1.90;;;1.65;;
635;SDS011;302;50.206;8.196;2024-02-26T03:03:15;1.83;;;1.70;;
635;SDS011;302;50.206;8.196;2024-02-26T03:05:59;2.75;;;1.67;;
635;SDS011;302;50.206;8.196;2024-02-26T03:08:43;1.65;;;1.55;;
635;SDS011;302;50.206;8.196;2024-02-26T03:11:27;2.33;;;2.13;;
635;SDS011;302;50.206;8.196;2024-02-26T03:14:11;1.95;;;1.83;;
635;SDS011;302;50.206;8.196;2024-02-26T03:16:55;2.15;;;1.70;;
635;SDS011;302;50.206;8.196;2024-02-26T03:19:38;1.98;;;1.77;;
635;SDS011;302;50.206;8.196;2024-02-26T03:22:22;1.90;;;1.70;;
635;SDS011;302;50.206;8.196;2024-02-26T03:25:07;2.13;;;1.92;;
635;SDS011;302;50.206;8.196;2024-02-26T03:27:50;1.88;;;1.67;;
635;SDS011;302;50.206;8.196;2024-02-26T03:30:34;2.08;;;1.70;;
635;SDS011;302;50.206;8.196;2024-02-26T03:33:18;1.83;;;1.60;;
635;SDS011;302;50.206;8.196;2024-02-26T03:36:02;1.73;;;1.60;;
635;SDS011;302;50.206;8.196;2024-02-26T03:38:47;1.50;;;1.40;;
635;SDS011;302;50.206;8.196;2024-02-26T03:41:30;1.80;;;1.70;;
635;SDS011;302;50.206;8.196;2024-02-26T03:44:15;1.83;;;1.73;;
635;SDS011;302;50.206;8.196;2024-02-26T03:46:59;1.67;;;1.58;;
635;SDS011;302;50.206;8.196;2024-02-26T03:49:43;1.60;;;1.50;;
635;SDS011;302;50.206;8.196;2024-02-26T03:52:27;2.22;;;2.03;;
635;SDS011;302;50.206;8.196;2024-02-26T03:55:11;2.47;;;1.90;;
635;SDS011;302;50.206;8.196;2024-02-26T03:57:55;1.60;;;1.50;;
635;SDS011;302;50.206;8.196;2024-02-26T04:00:39;1.73;;;1.63;;
635;SDS011;302;50.206;8.196;2024-02-26T04:03:23;2.03;;;1.85;;
635;SDS011;302;50.206;8.196;2024-02-26T04:06:10;2.45;;;1.60;;
635;SDS011;302;50.206;8.196;2024-02-26T04:08:54;3.22;;;1.85;;
635;SDS011;302;50.206;8.196;2024-02-26T04:11:38;1.65;;;1.55;;
635;SDS011;302;50.206;8.196;2024-02-26T04:14:22;2.17;;;1.60;;
635;SDS011;302;50.206;8.196;2024-02-26T04:17:06;2.85;;;1.92;;
635;SDS011;302;50.206;8.196;2024-02-26T04:19:50;2.40;;;1.95;;
635;SDS011;302;50.206;8.196;2024-02-26T04:22:33;2.08;;;1.90;;
635;SDS011;302;50.206;8.196;2024-02-26T04:25:17;1.88;;;1.73;;
635;SDS011;302;50.206;8.196;2024-02-26T04:28:01;1.80;;;1.60;;
635;SDS011;302;50.206;8.196;2024-02-26T04:30:47;1.60;;;1.50;;
635;SDS011;302;50.206;8.196;2024-02-26T04:33:33;1.80;;;1.70;;
635;SDS011;302;50.206;8.196;2024-02-26T04:36:17;1.92;;;1.70;;
635;SDS011;302;50.206;8.196;2024-02-26T04:39:01;1.50;;;1.40;;
635;SDS011;302;50.206;8.196;2024-02-26T04:41:46;1.95;;;1.80;;
635;SDS011;302;50.206;8.196;2024-02-26T04:44:30;1.65;;;1.55;;
635;SDS011;302;50.206;8.196;2024-02-26T04:47:14;2.00;;;1.80;;
635;SDS011;302;50.206;8.196;2024-02-26T04:49:58;2.00;;;1.80;;
635;SDS011;302;50.206;8.196;2024-02-26T04:52:42;1.60;;;1.50;;
635;SDS011;302;50.206;8.196;2024-02-26T04:55:26;2.33;;;1.60;;
635;SDS011;302;50.206;8.196;2024-02-26T04:58:10;1.52;;;1.35;;
635;SDS011;302;50.206;8.196;2024-02-26T05:00:54;1.90;;;1.80;;
635;SDS011;302;50.206;8.196;2024-02-26T05:03:37;1.50;;;1.30;;
635;SDS011;302;50.206;8.196;2024-02-26T05:06:21;2.10;;;1.90;;
635;SDS011;302;50.206;8.196;2024-02-26T05:09:05;2.10;;;1.80;;
635;SDS011;302;50.206;8.196;2024-02-26T05:11:49;1.77;;;1.67;;
635;SDS011;302;50.206;8.196;2024-02-26T05:14:33;1.85;;;1.60;;
635;SDS011;302;50.206;8.196;2024-02-26T05:17:17;2.65;;;1.48;;
635;SDS011;302;50.206;8.196;2024-02-26T05:20:01;1.42;;;1.33;;
635;SDS011;302;50.206;8.196;2024-02-26T05:22:45;2.28;;;1.33;;
635;SDS011;302;50.206;8.196;2024-02-26T05:25:29;1.40;;;1.30;;
635;SDS011;302;50.206;8.196;2024-02-26T05:28:13;1.77;;;1.30;;
635;SDS011;302;50.206;8.196;2024-02-26T05:30:56;1.52;;;1.35;;
635;SDS011;302;50.206;8.196;2024-02-26T05:33:40;1.55;;;1.45;;
635;SDS011;302;50.206;8.196;2024-02-26T05:36:24;2.00;;;1.85;;
635;SDS011;302;50.206;8.196;2024-02-26T05:39:09;2.20;;;1.80;;
635;SDS011;302;50.206;8.196;2024-02-26T05:41:55;1.60;;;1.30;;
635;SDS011;302;50.206;8.196;2024-02-26T05:44:39;1.48;;;1.38;;
635;SDS011;302;50.206;8.196;2024-02-26T05:47:23;1.70;;;1.45;;
635;SDS011;302;50.206;8.196;2024-02-26T05:50:07;1.33;;;1.23;;
635;SDS011;302;50.206;8.196;2024-02-26T05:52:53;2.08;;;1.48;;
635;SDS011;302;50.206;8.196;2024-02-26T05:55:37;1.50;;;1.30;;
635;SDS011;302;50.206;8.196;2024-02-26T05:58:21;1.40;;;1.20;;
635;SDS011;302;50.206;8.196;2024-02-26T06:01:05;1.65;;;1.30;;
635;SDS011;302;50.206;8.196;2024-02-26T06:03:49;1.30;;;1.20;;
635;SDS011;302;50.206;8.196;2024-02-26T06:06:33;1.52;;;1.42;;
635;SDS011;302;50.206;8.196;2024-02-26T06:09:16;1.50;;;1.40;;
635;SDS011;302;50.206;8.196;2024-02-26T06:12:00;1.77;;;1.60;;
635;SDS011;302;50.206;8.196;2024-02-26T06:14:44;2.22;;;1.70;;
635;SDS011;302;50.206;8.196;2024-02-26T06:17:28;1.83;;;1.73;;
635;SDS011;302;50.206;8.196;2024-02-26T06:20:12;2.33;;;2.13;;
635;SDS011;302;50.206;8.196;2024-02-26T06:22:56;5.00;;;3.60;;
635;SDS011;302;50.206;8.196;2024-02-26T06:25:40;3.38;;;3.00;;
635;SDS011;302;50.206;8.196;2024-02-26T06:28:25;3.13;;;2.92;;
635;SDS011;302;50.206;8.196;2024-02-26T06:31:10;3.40;;;3.10;;
635;SDS011;302;50.206;8.196;2024-02-26T06:33:54;3.30;;;3.00;;
635;SDS011;302;50.206;8.196;2024-02-26T06:36:39;2.67;;;2.47;;
635;SDS011;302;50.206;8.196;2024-02-26T06:39:23;3.10;;;2.80;;
635;SDS011;302;50.206;8.196;2024-02-26T06:42:07;3.40;;;3.03;;
635;SDS011;302;50.206;8.196;2024-02-26T06:44:50;3.30;;;3.00;;
635;SDS011;302;50.206;8.196;2024-02-26T06:47:35;3.55;;;3.00;;
635;SDS011;302;50.206;8.196;2024-02-26T06:50:19;3.65;;;3.35;;
635;SDS011;302;50.206;8.196;2024-02-26T06:53:03;3.47;;;3.00;;
635;SDS011;302;50.206;8.196;2024-02-26T06:55:47;2.97;;;2.78;;
635;SDS011;302;50.206;8.196;2024-02-26T06:58:33;3.30;;;2.95;;
635;SDS011;302;50.206;8.196;2024-02-26T07:01:17;3.55;;;3.25;;
635;SDS011;302;50.206;8.196;2024-02-26T07:04:01;3.30;;;3.00;;
635;SDS011;302;50.206;8.196;2024-02-26T07:06:45;3.60;;;3.30;;
635;SDS011;302;50.206;8.196;2024-02-26T07:09:30;2.95;;;2.75;;
635;SDS011;302;50.206;8.196;2024-02-26T07:12:13;2.83;;;2.63;;
635;SDS011;302;50.206;8.196;2024-02-26T07:14:57;3.90;;;3.60;;
635;SDS011;302;50.206;8.196;2024-02-26T07:17:42;4.50;;;4.07;;
635;SDS011;302;50.206;8.196;2024-02-26T07:20:30;4.10;;;3.70;;
635;SDS011;302;50.206;8.196;2024-02-26T07:23:14;4.18;;;3.78;;
635;SDS011;302;50.206;8.196;2024-02-26T07:25:58;3.60;;;3.30;;
635;SDS011;302;50.206;8.196;2024-02-26T07:28:42;4.32;;;3.92;;
635;SDS011;302;50.206;8.196;2024-02-26T07:31:26;4.35;;;3.95;;
635;SDS011;302;50.206;8.196;2024-02-26T07:34:10;5.45;;;4.95;;
635;SDS011;302;50.206;8.196;2024-02-26T07:36:57;5.60;;;4.75;;
635;SDS011;302;50.206;8.196;2024-02-26T07:39:41;5.18;;;4.68;;
635;SDS011;302;50.206;8.196;2024-02-26T07:42:25;5.18;;;4.68;;
635;SDS011;302;50.206;8.196;2024-02-26T07:45:09;5.70;;;5.20;;
635;SDS011;302;50.206;8.196;2024-02-26T07:47:53;6.18;;;5.57;;
635;SDS011;302;50.206;8.196;2024-02-26T07:50:37;5.00;;;4.50;;
635;SDS011;302;50.206;8.196;2024-02-26T07:53:21;4.53;;;4.13;;
635;SDS011;302;50.206;8.196;2024-02-26T07:56:05;5.10;;;4.70;;
635;SDS011;302;50.206;8.196;2024-02-26T07:58:49;5.30;;;4.80;;
635;SDS011;302;50.206;8.196;2024-02-26T08:01:33;5.85;;;5.00;;
635;SDS011;302;50.206;8.196;2024-02-26T08:04:18;5.00;;;4.60;;
635;SDS011;302;50.206;8.196;2024-02-26T08:07:02;4.55;;;4.15;;
635;SDS011;302;50.206;8.196;2024-02-26T08:09:46;5.15;;;4.65;;
635;SDS011;302;50.206;8.196;2024-02-26T08:12:29;4.35;;;3.95;;
635;SDS011;302;50.206;8.196;2024-02-26T08:15:13;4.95;;;4.13;;
635;SDS011;302;50.206;8.196;2024-02-26T08:17:57;4.30;;;3.90;;
635;SDS011;302;50.206;8.196;2024-02-26T08:20:41;4.60;;;4.05;;
635;SDS011;302;50.206;8.196;2024-02-26T08:23:25;4.20;;;3.90;;
635;SDS011;302;50.206;8.196;2024-02-26T08:26:10;4.60;;;4.20;;
635;SDS011;302;50.206;8.196;2024-02-26T08:28:55;4.43;;;4.07;;
635;SDS011;302;50.206;8.196;2024-02-26T08:31:39;4.03;;;3.63;;
635;SDS011;302;50.206;8.196;2024-02-26T08:34:23;5.05;;;3.90;;
635;SDS011;302;50.206;8.196;2024-02-26T08:37:06;4.13;;;3.78;;
635;SDS011;302;50.206;8.196;2024-02-26T08:39:50;3.97;;;3.60;;
635;SDS011;302;50.206;8.196;2024-02-26T08:42:34;6.65;;;4.00;;
635;SDS011;302;50.206;8.196;2024-02-26T08:45:18;3.80;;;3.50;;
635;SDS011;302;50.206;8.196;2024-02-26T08:48:02;4.03;;;3.72;;
635;SDS011;302;50.206;8.196;2024-02-26T08:50:46;3.80;;;3.50;;
635;SDS011;302;50.206;8.196;2024-02-26T08:53:30;3.70;;;3.33;;
635;SDS011;302;50.206;8.196;2024-02-26T08:56:14;4.38;;;3.60;;
635;SDS011;302;50.206;8.196;2024-02-26T08:59:00;3.80;;;3.50;;
635;SDS011;302;50.206;8.196;2024-02-26T09:01:47;3.80;;;3.40;;
635;SDS011;302;50.206;8.196;2024-02-26T09:04:31;3.95;;;3.58;;
635;SDS011;302;50.206;8.196;2024-02-26T09:07:15;3.70;;;3.40;;
635;SDS011;302;50.206;8.196;2024-02-26T09:09:58;4.05;;;3.65;;
635;SDS011;302;50.206;8.196;2024-02-26T09:12:42;4.30;;;3.90;;
635;SDS011;302;50.206;8.196;2024-02-26T09:15:26;3.97;;;3.58;;
635;SDS011;302;50.206;8.196;2024-02-26T09:18:10;3.47;;;3.17;;
635;SDS011;302;50.206;8.196;2024-02-26T09:20:54;3.70;;;3.40;;
635;SDS011;302;50.206;8.196;2024-02-26T09:23:38;3.97;;;3.40;;
635;SDS011;302;50.206;8.196;2024-02-26T09:26:22;4.22;;;3.83;;
635;SDS011;302;50.206;8.196;2024-02-26T09:29:06;3.80;;;3.50;;
635;SDS011;302;50.206;8.196;2024-02-26T09:31:52;4.00;;;3.60;;
635;SDS011;302;50.206;8.196;2024-02-26T09:34:35;4.20;;;3.80;;
635;SDS011;302;50.206;8.196;2024-02-26T09:37:20;4.20;;;3.85;;
635;SDS011;302;50.206;8.196;2024-02-26T09:40:04;4.68;;;4.22;;
635;SDS011;302;50.206;8.196;2024-02-26T09:42:49;4.20;;;3.80;;
635;SDS011;302;50.206;8.196;2024-02-26T09:45:36;5.07;;;3.97;;
635;SDS011;302;50.206;8.196;2024-02-26T09:48:20;4.38;;;3.97;;
635;SDS011;302;50.206;8.196;2024-02-26T09:51:05;4.28;;;3.88;;
635;SDS011;302;50.206;8.196;2024-02-26T09:53:49;3.97;;;3.60;;
635;SDS011;302;50.206;8.196;2024-02-26T09:56:35;3.63;;;3.33;;
635;SDS011;302;50.206;8.196;2024-02-26T09:59:19;4.90;;;4.07;;
635;SDS011;302;50.206;8.196;2024-02-26T10:02:03;4.00;;;3.70;;
635;SDS011;302;50.206;8.196;2024-02-26T10:04:47;4.32;;;3.92;;
635;SDS011;302;50.206;8.196;2024-02-26T10:07:34;4.10;;;3.70;;
635;SDS011;302;50.206;8.196;2024-02-26T10:10:18;3.58;;;3.25;;
635;SDS011;302;50.206;8.196;2024-02-26T10:13:03;4.63;;;3.40;;
635;SDS011;302;50.206;8.196;2024-02-26T10:15:47;3.70;;;3.40;;
635;SDS011;302;50.206;8.196;2024-02-26T10:21:31;3.80;;;3.50;;
635;SDS011;302;50.206;8.196;2024-02-26T10:24:15;3.75;;;3.38;;
635;SDS011;302;50.206;8.196;2024-02-26T10:26:59;4.13;;;3.35;;
635;SDS011;302;50.206;8.196;2024-02-26T10:29:42;3.88;;;3.30;;
635;SDS011;302;50.206;8.196;2024-02-26T10:32:26;3.70;;;3.40;;
635;SDS011;302;50.206;8.196;2024-02-26T10:35:11;3.72;;;3.28;;
635;SDS011;302;50.206;8.196;2024-02-26T10:37:54;2.92;;;2.70;;
635;SDS011;302;50.206;8.196;2024-02-26T10:40:38;3.05;;;2.75;;
635;SDS011;302;50.206;8.196;2024-02-26T10:43:22;3.15;;;2.85;;
635;SDS011;302;50.206;8.196;2024-02-26T10:46:06;3.25;;;2.95;;
635;SDS011;302;50.206;8.196;2024-02-26T10:48:51;2.95;;;2.65;;
635;SDS011;302;50.206;8.196;2024-02-26T10:51:35;4.30;;;3.33;;
635;SDS011;302;50.206;8.196;2024-02-26T10:54:21;3.10;;;2.90;;
635;SDS011;302;50.206;8.196;2024-02-26T10:57:05;3.28;;;2.97;;
635;SDS011;302;50.206;8.196;2024-02-26T10:59:49;3.78;;;2.95;;
635;SDS011;302;50.206;8.196;2024-02-26T11:02:33;3.95;;;3.65;;
635;SDS011;302;50.206;8.196;2024-02-26T11:05:17;3.38;;;2.72;;
635;SDS011;302;50.206;8.196;2024-02-26T11:08:03;3.13;;;2.83;;
635;SDS011;302;50.206;8.196;2024-02-26T11:10:48;3.85;;;3.05;;
635;SDS011;302;50.206;8.196;2024-02-26T11:13:34;3.25;;;2.80;;
635;SDS011;302;50.206;8.196;2024-02-26T11:16:22;3.33;;;3.03;;
635;SDS011;302;50.206;8.196;2024-02-26T11:19:08;3.50;;;3.20;;
635;SDS011;302;50.206;8.196;2024-02-26T11:21:53;3.40;;;3.10;;
635;SDS011;302;50.206;8.196;2024-02-26T11:24:37;3.15;;;2.95;;
635;SDS011;302;50.206;8.196;2024-02-26T11:27:26;3.30;;;3.00;;
635;SDS011;302;50.206;8.196;2024-02-26T11:30:10;4.43;;;4.00;;
635;SDS011;302;50.206;8.196;2024-02-26T11:32:54;3.00;;;2.70;;
635;SDS011;302;50.206;8.196;2024-02-26T11:35:38;4.70;;;2.90;;
635;SDS011;302;50.206;8.196;2024-02-26T11:38:23;2.88;;;2.60;;
635;SDS011;302;50.206;8.196;2024-02-26T11:41:07;2.33;;;2.13;;
635;SDS011;302;50.206;8.196;2024-02-26T11:43:58;3.35;;;2.65;;
635;SDS011;302;50.206;8.196;2024-02-26T11:46:44;3.33;;;2.45;;
635;SDS011;302;50.206;8.196;2024-02-26T11:49:30;3.20;;;2.78;;
635;SDS011;302;50.206;8.196;2024-02-26T11:52:14;2.92;;;2.72;;
635;SDS011;302;50.206;8.196;2024-02-26T11:54:59;2.85;;;2.65;;
635;SDS011;302;50.206;8.196;2024-02-26T11:57:43;3.47;;;2.30;;
635;SDS011;302;50.206;8.196;2024-02-26T12:00:26;2.50;;;2.30;;
635;SDS011;302;50.206;8.196;2024-02-26T12:03:11;2.55;;;2.35;;
635;SDS011;302;50.206;8.196;2024-02-26T12:05:55;2.72;;;2.50;;
635;SDS011;302;50.206;8.196;2024-02-26T12:08:40;2.33;;;2.13;;
635;SDS011;302;50.206;8.196;2024-02-26T12:11:26;2.95;;;2.75;;
635;SDS011;302;50.206;8.196;2024-02-26T12:14:10;2.63;;;2.20;;
635;SDS011;302;50.206;8.196;2024-02-26T12:16:57;2.83;;;2.58;;
635;SDS011;302;50.206;8.196;2024-02-26T12:19:42;2.70;;;2.50;;
635;SDS011;302;50.206;8.196;2024-02-26T12:22:26;2.90;;;2.70;;
635;SDS011;302;50.206;8.196;2024-02-26T12:25:11;3.00;;;2.72;;
635;SDS011;302;50.206;8.196;2024-02-26T12:27:55;2.60;;;2.40;;
635;SDS011;302;50.206;8.196;2024-02-26T12:30:39;3.00;;;2.80;;
635;SDS011;302;50.206;8.196;2024-02-26T12:33:23;2.65;;;2.40;;
635;SDS011;302;50.206;8.196;2024-02-26T12:36:10;4.10;;;2.97;;
635;SDS011;302;50.206;8.196;2024-02-26T12:38:54;3.15;;;2.92;;
635;SDS011;302;50.206;8.196;2024-02-26T12:41:38;2.70;;;2.50;;
635;SDS011;302;50.206;8.196;2024-02-26T12:44:26;2.72;;;2.53;;
635;SDS011;302;50.206;8.196;2024-02-26T12:47:10;2.95;;;2.70;;
635;SDS011;302;50.206;8.196;2024-02-26T12:49:56;2.70;;;2.50;;
635;SDS011;302;50.206;8.196;2024-02-26T12:52:44;2.92;;;2.63;;
635;SDS011;302;50.206;8.196;2024-02-26T12:55:27;2.78;;;2.58;;
635;SDS011;302;50.206;8.196;2024-02-26T12:58:11;4.20;;;2.13;;
635;SDS011;302;50.206;8.196;2024-02-26T13:00:56;4.15;;;2.40;;
635;SDS011;302;50.206;8.196;2024-02-26T13:03:40;3.17;;;2.33;;
635;SDS011;302;50.206;8.196;2024-02-26T13:06:23;2.70;;;2.50;;
635;SDS011;302;50.206;8.196;2024-02-26T13:09:07;2.75;;;2.55;;
635;SDS011;302;50.206;8.196;2024-02-26T13:11:56;2.25;;;2.15;;
635;SDS011;302;50.206;8.196;2024-02-26T13:14:40;2.80;;;2.60;;
635;SDS011;302;50.206;8.196;2024-02-26T13:17:24;2.58;;;2.33;;
635;SDS011;302;50.206;8.196;2024-02-26T13:20:11;2.90;;;2.60;;
635;SDS011;302;50.206;8.196;2024-02-26T13:23:04;2.40;;;2.20;;
635;SDS011;302;50.206;8.196;2024-02-26T13:25:49;2.60;;;2.40;;
635;SDS011;302;50.206;8.196;2024-02-26T13:28:40;2.45;;;2.03;;
635;SDS011;302;50.206;8.196;2024-02-26T13:31:23;2.70;;;2.47;;
635;SDS011;302;50.206;8.196;2024-02-26T13:34:07;2.50;;;2.30;;
635;SDS011;302;50.206;8.196;2024-02-26T13:36:52;2.83;;;2.63;;
635;SDS011;302;50.206;8.196;2024-02-26T13:39:36;2.80;;;2.60;;
635;SDS011;302;50.206;8.196;2024-02-26T13:42:21;3.05;;;2.33;;
635;SDS011;302;50.206;8.196;2024-02-26T13:45:05;2.95;;;2.53;;
635;SDS011;302;50.206;8.196;2024-02-26T13:47:52;2.65;;;2.45;;
635;SDS011;302;50.206;8.196;2024-02-26T13:50:36;2.70;;;2.05;;
635;SDS011;302;50.206;8.196;2024-02-26T13:53:20;2.60;;;2.25;;
635;SDS011;302;50.206;8.196;2024-02-26T13:56:05;2.65;;;2.30;;
635;SDS011;302;50.206;8.196;2024-02-26T13:58:49;2.80;;;2.60;;
635;SDS011;302;50.206;8.196;2024-02-26T14:01:33;2.30;;;2.10;;
635;SDS011;302;50.206;8.196;2024-02-26T14:04:17;3.08;;;2.70;;
635;SDS011;302;50.206;8.196;2024-02-26T14:07:01;3.40;;;3.00;;
635;SDS011;302;50.206;8.196;2024-02-26T14:09:45;3.10;;;2.80;;
635;SDS011;302;50.206;8.196;2024-02-26T14:12:29;2.78;;;2.50;;
635;SDS011;302;50.206;8.196;2024-02-26T14:15:13;2.50;;;2.30;;
635;SDS011;302;50.206;8.196;2024-02-26T14:17:57;2.85;;;2.65;;
635;SDS011;302;50.206;8.196;2024-02-26T14:20:41;2.25;;;2.05;;
635;SDS011;302;50.206;8.196;2024-02-26T14:23:25;2.70;;;1.90;;
635;SDS011;302;50.206;8.196;2024-02-26T14:26:09;2.58;;;2.38;;
635;SDS011;302;50.206;8.196;2024-02-26T14:28:53;2.40;;;2.20;;
635;SDS011;302;50.206;8.196;2024-02-26T14:31:37;2.30;;;2.10;;
635;SDS011;302;50.206;8.196;2024-02-26T14:34:21;2.00;;;1.90;;
635;SDS011;302;50.206;8.196;2024-02-26T14:37:05;2.90;;;2.60;;
635;SDS011;302;50.206;8.196;2024-02-26T14:39:49;3.25;;;2.40;;
635;SDS011;302;50.206;8.196;2024-02-26T14:42:35;2.17;;;1.83;;
635;SDS011;302;50.206;8.196;2024-02-26T14:45:19;2.10;;;1.90;;
635;SDS011;302;50.206;8.196;2024-02-26T14:48:03;1.80;;;1.70;;
635;SDS011;302;50.206;8.196;2024-02-26T14:50:47;2.40;;;1.90;;
635;SDS011;302;50.206;8.196;2024-02-26T14:53:31;2.60;;;2.30;;
635;SDS011;302;50.206;8.196;2024-02-26T14:56:15;2.35;;;1.95;;
635;SDS011;302;50.206;8.196;2024-02-26T14:58:59;2.70;;;2.50;;
635;SDS011;302;50.206;8.196;2024-02-26T15:01:44;2.60;;;2.40;;
635;SDS011;302;50.206;8.196;2024-02-26T15:04:28;2.78;;;2.13;;
635;SDS011;302;50.206;8.196;2024-02-26T15:07:12;2.75;;;2.40;;
635;SDS011;302;50.206;8.196;2024-02-26T15:09:56;2.75;;;2.55;;
635;SDS011;302;50.206;8.196;2024-02-26T15:12:42;2.72;;;2.40;;
635;SDS011;302;50.206;8.196;2024-02-26T15:15:26;2.65;;;2.00;;
635;SDS011;302;50.206;8.196;2024-02-26T15:18:10;2.20;;;2.00;;
635;SDS011;302;50.206;8.196;2024-02-26T15:20:59;2.30;;;2.10;;
635;SDS011;302;50.206;8.196;2024-02-26T15:23:43;1.88;;;1.77;;
635;SDS011;302;50.206;8.196;2024-02-26T15:26:30;2.83;;;2.13;;
635;SDS011;302;50.206;8.196;2024-02-26T15:29:14;2.55;;;2.33;;
635;SDS011;302;50.206;8.196;2024-02-26T15:31:58;2.75;;;2.30;;
635;SDS011;302;50.206;8.196;2024-02-26T15:34:42;2.83;;;2.10;;
635;SDS011;302;50.206;8.196;2024-02-26T15:37:26;2.10;;;1.90;;
635;SDS011;302;50.206;8.196;2024-02-26T15:40:10;2.67;;;2.30;;
635;SDS011;302;50.206;8.196;2024-02-26T15:42:54;2.30;;;2.10;;
635;SDS011;302;50.206;8.196;2024-02-26T15:45:38;2.15;;;1.95;;
635;SDS011;302;50.206;8.196;2024-02-26T15:48:22;2.10;;;2.00;;
635;SDS011;302;50.206;8.196;2024-02-26T15:51:06;2.60;;;2.40;;
635;SDS011;302;50.206;8.196;2024-02-26T15:53:50;1.83;;;1.73;;
635;SDS011;302;50.206;8.196;2024-02-26T15:56:34;3.00;;;2.58;;
635;SDS011;302;50.206;8.196;2024-02-26T15:59:19;2.90;;;2.70;;
635;SDS011;302;50.206;8.196;2024-02-26T16:02:03;2.75;;;2.55;;
635;SDS011;302;50.206;8.196;2024-02-26T16:04:47;6.20;;;3.03;;
635;SDS011;302;50.206;8.196;2024-02-26T16:07:34;2.70;;;2.08;;
635;SDS011;302;50.206;8.196;2024-02-26T16:10:19;2.95;;;2.65;;
635;SDS011;302;50.206;8.196;2024-02-26T16:13:03;2.90;;;2.70;;
635;SDS011;302;50.206;8.196;2024-02-26T16:15:50;3.60;;;3.30;;
635;SDS011;302;50.206;8.196;2024-02-26T16:18:35;3.55;;;3.25;;
635;SDS011;302;50.206;8.196;2024-02-26T16:21:19;4.60;;;3.65;;
635;SDS011;302;50.206;8.196;2024-02-26T16:24:03;4.00;;;3.53;;
635;SDS011;302;50.206;8.196;2024-02-26T16:26:47;3.80;;;3.50;;
635;SDS011;302;50.206;8.196;2024-02-26T16:29:30;3.90;;;3.10;;
635;SDS011;302;50.206;8.196;2024-02-26T16:32:14;3.50;;;2.72;;
635;SDS011;302;50.206;8.196;2024-02-26T16:34:58;4.18;;;3.78;;
635;SDS011;302;50.206;8.196;2024-02-26T16:37:42;3.28;;;2.97;;
635;SDS011;302;50.206;8.196;2024-02-26T16:40:26;3.60;;;3.30;;
635;SDS011;302;50.206;8.196;2024-02-26T16:43:10;3.58;;;3.13;;
635;SDS011;302;50.206;8.196;2024-02-26T16:45:54;3.85;;;3.50;;
635;SDS011;302;50.206;8.196;2024-02-26T16:48:38;4.95;;;3.78;;
635;SDS011;302;50.206;8.196;2024-02-26T16:51:22;3.95;;;3.42;;
635;SDS011;302;50.206;8.196;2024-02-26T16:54:06;3.92;;;3.53;;
635;SDS011;302;50.206;8.196;2024-02-26T16:56:50;3.58;;;3.28;;
635;SDS011;302;50.206;8.196;2024-02-26T16:59:37;3.85;;;3.30;;
635;SDS011;302;50.206;8.196;2024-02-26T17:02:21;3.70;;;3.40;;
635;SDS011;302;50.206;8.196;2024-02-26T17:05:04;4.20;;;3.60;;
635;SDS011;302;50.206;8.196;2024-02-26T17:07:48;6.05;;;3.67;;
635;SDS011;302;50.206;8.196;2024-02-26T17:10:32;3.10;;;2.80;;
635;SDS011;302;50.206;8.196;2024-02-26T17:13:16;3.45;;;3.15;;
635;SDS011;302;50.206;8.196;2024-02-26T17:16:01;3.72;;;3.35;;
635;SDS011;302;50.206;8.196;2024-02-26T17:18:44;5.00;;;3.60;;
635;SDS011;302;50.206;8.196;2024-02-26T17:21:28;3.28;;;2.97;;
635;SDS011;302;50.206;8.196;2024-02-26T17:24:12;3.50;;;3.20;;
635;SDS011;302;50.206;8.196;2024-02-26T17:26:56;4.22;;;3.63;;
635;SDS011;302;50.206;8.196;2024-02-26T17:29:41;4.15;;;3.70;;
635;SDS011;302;50.206;8.196;2024-02-26T17:32:25;4.50;;;2.80;;
635;SDS011;302;50.206;8.196;2024-02-26T17:35:09;3.70;;;3.00;;
635;SDS011;302;50.206;8.196;2024-02-26T17:37:57;4.20;;;3.42;;